AirNav   Everest Fuels
 
 1151 users online  

3MN4 Rolling Hills Airport
Westbrook, Minnesota, USA

GOING TO WESTBROOK?


FAA INFORMATION EFFECTIVE 01 DECEMBER 2022

Location

FAA Identifier: 3MN4
Lat/Long: 43-57-03.0400N 095-23-07.1800W
43-57.050667N 095-23.119667W
43.9508444,-95.3853278
(estimated)
Elevation: 1477 ft. / 450 m
From city: 7 miles SSE of WESTBROOK, MN
Time zone: UTC -6 (UTC -5 during Daylight Saving Time)
Zip code: 56123

Airport Operations

Airport use: Private use. Permission required prior to landing
Activation date: 11/2017
Control tower: no
ARTCC: MINNEAPOLIS CENTER
FSS: PRINCETON FLIGHT SERVICE STATION
Attendance: 
Segmented circle: no

Airport Communications

WX AWOS-3 at MWM (12 nm E): 118.525 (507-831-1833)
WX AWOS-3 at DVP (17 nm W): 118.55 (507-836-6128)
WX AWOS-3PT at OTG (20 nm SW): 121.075 (507-376-9441)

Nearby radio navigation aids

VOR radial/distance  VOR name  Freq  Var
RWFr193/32.9REDWOOD FALLS VOR/DME113.3007E
MMLr143/35.3MARSHALL VOR/DME111.0005E

Airport Services

Runway Information

Runway 9/27

Dimensions: 2250 x 60 ft. / 686 x 18 m
Surface: turf
RUNWAY 9  RUNWAY 27
Traffic pattern: leftleft

Airport Ownership and Management from official FAA records

Ownership: Privately-owned
Owner: BEN OLSEM
34538 COUNTY ROAD 13
WESTBROOK, MN 56183
Phone 507-360-1281
Manager: BEN OLSEM
34538 COUNTY ROAD 13
WESTBROOK, MN 56183
Phone 507-360-1281
EMAIL ADDRESS: OAASLLC@GMAIL.COM (ALL LOWER CASE)

Additional Remarks

FOR CD CTC MINNEAPOLIS ARTCC AT 651-463-5588.

Instrument Procedures

There are no published instrument procedures at 3MN4.

Some nearby airports with instrument procedures:

KMWM - Windom Municipal Airport (12 nm E)
KDVP - Slayton Municipal Airport (17 nm W)
KOTG - Worthington Municipal Airport (20 nm SW)
KTKC - Tracy Municipal Airport (20 nm NW)
D42 - Springfield Municipal Airport (24 nm NE)
 
Loc | Ops | Rwys | IFR | FBO | Links
Com | Nav | Svcs | Stats | Notes
Aerial photo
No photo
 
Airport distance calculator
Flying to Rolling Hills Airport? Find the distance to fly.

From to 3MN4

Sunrise and sunset
Times for 03-Dec-2022
 Local
(UTC-6)
 Zulu
(UTC)
Morning civil twilight07:0713:07
Sunrise07:3913:39
Sunset16:4322:43
Evening civil twilight17:1623:16

Current date and time
Zulu (UTC)  04-Dec-2022 02:43:55
Local (UTC-6)  03-Dec-2022 20:43:55
 
METAR
KMWM 
13nm E 
040215Z AUTO 19014G19KT 10SM CLR M07/M12 A3018 RMK AO2
KDVP 
17nm W 
040213Z AUTO 20014KT 10SM CLR M07/M11 A3018 RMK AO2 T10661111
KTKC 
20nm NW 
040215Z AUTO 22013G20KT 10SM CLR M06/M09 A3018 RMK AO2
KOTG 
21nm S 
040156Z AUTO 20018KT 10SM CLR M07/M12 A3019 RMK AO2 SLP260 T10671117 FZRANO
TAF
KRWF 
38nm N 
032117Z 0321/0418 18007KT P6SM SKC FM040600 25008KT P6SM SKC
NOTAMs
Click for the latest NOTAMs
NOTAMs are issued by the DoD/FAA and will open in a separate window not controlled by AirNav.

 

 
 

Would you like to see your business listed on this page?

 If your business provides an interesting product or service to pilots, flight crews, aircraft, or users of the Rolling Hills Airport, you should consider listing it here.  To start the listing process, click on the button below
 
Add a business
 

Other Pages about Rolling Hills Airport

Update a link
 
Copyright © AirNav, LLC. All rights reserved. Privacy Policy  Contact